sensor_id;sensor_type;location;lat;lon;timestamp;temperature;humidity
3071;DHT22;1546;47.208;9.038;2022-12-07T00:00:13;4.80;99.90
3071;DHT22;1546;47.208;9.038;2022-12-07T00:02:40;4.80;99.90
3071;DHT22;1546;47.208;9.038;2022-12-07T00:05:09;4.80;99.90
3071;DHT22;1546;47.208;9.038;2022-12-07T00:07:35;4.80;99.90
3071;DHT22;1546;47.208;9.038;2022-12-07T00:10:02;4.80;99.90
3071;DHT22;1546;47.208;9.038;2022-12-07T00:12:29;4.70;99.90
3071;DHT22;1546;47.208;9.038;2022-12-07T00:14:56;4.70;99.90
3071;DHT22;1546;47.208;9.038;2022-12-07T00:17:23;4.70;99.90
3071;DHT22;1546;47.208;9.038;2022-12-07T00:19:50;4.70;99.90
3071;DHT22;1546;47.208;9.038;2022-12-07T00:22:18;4.80;99.90
3071;DHT22;1546;47.208;9.038;2022-12-07T00:24:45;4.90;99.90
3071;DHT22;1546;47.208;9.038;2022-12-07T00:27:11;4.90;99.90
3071;DHT22;1546;47.208;9.038;2022-12-07T00:29:38;4.90;99.90
3071;DHT22;1546;47.208;9.038;2022-12-07T00:32:05;4.80;99.90
3071;DHT22;1546;47.208;9.038;2022-12-07T00:34:32;4.80;99.90
3071;DHT22;1546;47.208;9.038;2022-12-07T00:36:59;4.80;99.90
3071;DHT22;1546;47.208;9.038;2022-12-07T00:39:27;4.80;99.90
3071;DHT22;1546;47.208;9.038;2022-12-07T00:41:53;4.90;99.90
3071;DHT22;1546;47.208;9.038;2022-12-07T00:44:20;5.00;99.90
3071;DHT22;1546;47.208;9.038;2022-12-07T00:46:47;4.90;99.90
3071;DHT22;1546;47.208;9.038;2022-12-07T00:49:14;5.00;99.90
3071;DHT22;1546;47.208;9.038;2022-12-07T00:51:41;5.00;99.90
3071;DHT22;1546;47.208;9.038;2022-12-07T00:54:08;4.90;99.90
3071;DHT22;1546;47.208;9.038;2022-12-07T00:56:36;4.90;99.90
3071;DHT22;1546;47.208;9.038;2022-12-07T00:59:03;4.90;99.90
3071;DHT22;1546;47.208;9.038;2022-12-07T01:01:32;4.80;99.90
3071;DHT22;1546;47.208;9.038;2022-12-07T01:03:59;5.40;99.90
3071;DHT22;1546;47.208;9.038;2022-12-07T01:06:27;4.80;99.90
3071;DHT22;1546;47.208;9.038;2022-12-07T01:08:54;4.90;99.90
3071;DHT22;1546;47.208;9.038;2022-12-07T01:11:23;4.90;99.90
3071;DHT22;1546;47.208;9.038;2022-12-07T01:13:52;4.90;99.90
3071;DHT22;1546;47.208;9.038;2022-12-07T01:16:20;4.90;99.90
3071;DHT22;1546;47.208;9.038;2022-12-07T01:18:49;4.80;99.90
3071;DHT22;1546;47.208;9.038;2022-12-07T01:21:18;4.80;99.90
3071;DHT22;1546;47.208;9.038;2022-12-07T01:23:46;4.80;99.90
3071;DHT22;1546;47.208;9.038;2022-12-07T01:26:14;4.80;99.90
3071;DHT22;1546;47.208;9.038;2022-12-07T01:28:42;4.80;99.90
3071;DHT22;1546;47.208;9.038;2022-12-07T01:31:12;4.70;99.90
3071;DHT22;1546;47.208;9.038;2022-12-07T01:33:41;4.70;99.90
3071;DHT22;1546;47.208;9.038;2022-12-07T01:36:13;4.70;99.90
3071;DHT22;1546;47.208;9.038;2022-12-07T01:38:41;4.70;99.90
3071;DHT22;1546;47.208;9.038;2022-12-07T01:41:08;4.80;99.90
3071;DHT22;1546;47.208;9.038;2022-12-07T01:43:35;4.70;99.90
3071;DHT22;1546;47.208;9.038;2022-12-07T01:46:02;4.70;99.90
3071;DHT22;1546;47.208;9.038;2022-12-07T01:48:33;4.60;99.90
3071;DHT22;1546;47.208;9.038;2022-12-07T01:51:04;4.60;99.90
3071;DHT22;1546;47.208;9.038;2022-12-07T01:53:33;4.60;99.90
3071;DHT22;1546;47.208;9.038;2022-12-07T01:56:00;4.70;99.90
3071;DHT22;1546;47.208;9.038;2022-12-07T01:58:28;4.60;99.90
3071;DHT22;1546;47.208;9.038;2022-12-07T02:00:55;4.60;99.90
3071;DHT22;1546;47.208;9.038;2022-12-07T02:03:25;4.60;99.90
3071;DHT22;1546;47.208;9.038;2022-12-07T02:05:55;4.70;99.90
3071;DHT22;1546;47.208;9.038;2022-12-07T02:08:24;4.70;99.90
3071;DHT22;1546;47.208;9.038;2022-12-07T02:10:51;4.60;99.90
3071;DHT22;1546;47.208;9.038;2022-12-07T02:13:21;4.70;99.90
3071;DHT22;1546;47.208;9.038;2022-12-07T02:16:08;4.80;99.90
3071;DHT22;1546;47.208;9.038;2022-12-07T02:18:52;4.80;99.90
3071;DHT22;1546;47.208;9.038;2022-12-07T02:21:27;4.70;99.90
3071;DHT22;1546;47.208;9.038;2022-12-07T02:27:22;4.70;99.90
3071;DHT22;1546;47.208;9.038;2022-12-07T02:29:58;4.70;99.90
3071;DHT22;1546;47.208;9.038;2022-12-07T02:32:31;4.70;99.90
3071;DHT22;1546;47.208;9.038;2022-12-07T02:35:06;4.70;99.90
3071;DHT22;1546;47.208;9.038;2022-12-07T02:37:37;4.80;99.90
3071;DHT22;1546;47.208;9.038;2022-12-07T02:40:09;4.80;99.90
3071;DHT22;1546;47.208;9.038;2022-12-07T02:42:40;4.70;99.90
3071;DHT22;1546;47.208;9.038;2022-12-07T02:45:12;4.70;99.90
3071;DHT22;1546;47.208;9.038;2022-12-07T02:47:41;4.70;99.90
3071;DHT22;1546;47.208;9.038;2022-12-07T02:50:10;4.80;99.90
3071;DHT22;1546;47.208;9.038;2022-12-07T02:52:37;4.80;99.90
3071;DHT22;1546;47.208;9.038;2022-12-07T02:55:05;4.90;99.90
3071;DHT22;1546;47.208;9.038;2022-12-07T02:57:46;4.80;99.90
3071;DHT22;1546;47.208;9.038;2022-12-07T03:00:19;4.80;99.90
3071;DHT22;1546;47.208;9.038;2022-12-07T03:02:53;4.70;99.90
3071;DHT22;1546;47.208;9.038;2022-12-07T03:05:36;4.60;99.90
3071;DHT22;1546;47.208;9.038;2022-12-07T03:08:13;4.50;99.90
3071;DHT22;1546;47.208;9.038;2022-12-07T03:10:48;4.40;99.90
3071;DHT22;1546;47.208;9.038;2022-12-07T03:13:23;4.40;99.90
3071;DHT22;1546;47.208;9.038;2022-12-07T03:15:57;4.40;99.90
3071;DHT22;1546;47.208;9.038;2022-12-07T03:18:29;4.40;99.90
3071;DHT22;1546;47.208;9.038;2022-12-07T03:21:00;4.40;99.90
3071;DHT22;1546;47.208;9.038;2022-12-07T03:23:29;4.50;99.90
3071;DHT22;1546;47.208;9.038;2022-12-07T03:26:00;4.50;99.90
3071;DHT22;1546;47.208;9.038;2022-12-07T03:28:31;4.50;99.90
3071;DHT22;1546;47.208;9.038;2022-12-07T03:31:03;4.50;99.90
3071;DHT22;1546;47.208;9.038;2022-12-07T03:33:39;4.40;99.90
3071;DHT22;1546;47.208;9.038;2022-12-07T03:36:08;4.40;99.90
3071;DHT22;1546;47.208;9.038;2022-12-07T03:38:40;4.50;99.90
3071;DHT22;1546;47.208;9.038;2022-12-07T03:41:10;4.60;99.90
3071;DHT22;1546;47.208;9.038;2022-12-07T03:43:39;4.70;99.90
3071;DHT22;1546;47.208;9.038;2022-12-07T03:46:15;4.90;99.90
3071;DHT22;1546;47.208;9.038;2022-12-07T03:48:48;4.90;99.90
3071;DHT22;1546;47.208;9.038;2022-12-07T03:51:24;4.90;99.90
3071;DHT22;1546;47.208;9.038;2022-12-07T03:53:56;4.80;99.90
3071;DHT22;1546;47.208;9.038;2022-12-07T03:56:26;4.70;99.90
3071;DHT22;1546;47.208;9.038;2022-12-07T03:58:54;4.60;99.90
3071;DHT22;1546;47.208;9.038;2022-12-07T04:01:22;4.60;99.90
3071;DHT22;1546;47.208;9.038;2022-12-07T04:03:49;4.50;99.90
3071;DHT22;1546;47.208;9.038;2022-12-07T04:06:16;4.50;99.90
3071;DHT22;1546;47.208;9.038;2022-12-07T04:08:43;4.60;99.90
3071;DHT22;1546;47.208;9.038;2022-12-07T04:11:10;4.70;99.90
3071;DHT22;1546;47.208;9.038;2022-12-07T04:13:37;4.80;99.90
3071;DHT22;1546;47.208;9.038;2022-12-07T04:16:17;4.80;99.90
3071;DHT22;1546;47.208;9.038;2022-12-07T04:18:46;4.80;99.90
3071;DHT22;1546;47.208;9.038;2022-12-07T04:21:12;4.70;99.90
3071;DHT22;1546;47.208;9.038;2022-12-07T04:23:39;4.70;99.90
3071;DHT22;1546;47.208;9.038;2022-12-07T04:26:06;4.70;99.90
3071;DHT22;1546;47.208;9.038;2022-12-07T04:28:33;4.70;99.90
3071;DHT22;1546;47.208;9.038;2022-12-07T04:30:59;4.70;99.90
3071;DHT22;1546;47.208;9.038;2022-12-07T04:33:26;4.70;99.90
3071;DHT22;1546;47.208;9.038;2022-12-07T04:35:54;4.80;99.90
3071;DHT22;1546;47.208;9.038;2022-12-07T04:38:21;4.90;99.90
3071;DHT22;1546;47.208;9.038;2022-12-07T04:40:48;4.80;99.90
3071;DHT22;1546;47.208;9.038;2022-12-07T04:43:15;4.70;99.90
3071;DHT22;1546;47.208;9.038;2022-12-07T04:45:45;4.70;99.90
3071;DHT22;1546;47.208;9.038;2022-12-07T04:48:12;4.70;99.90
3071;DHT22;1546;47.208;9.038;2022-12-07T04:50:39;4.80;99.90
3071;DHT22;1546;47.208;9.038;2022-12-07T04:53:07;4.80;99.90
3071;DHT22;1546;47.208;9.038;2022-12-07T04:55:34;4.80;99.90
3071;DHT22;1546;47.208;9.038;2022-12-07T04:58:01;4.80;99.90
3071;DHT22;1546;47.208;9.038;2022-12-07T05:00:28;4.60;99.90
3071;DHT22;1546;47.208;9.038;2022-12-07T05:02:54;4.50;99.90
3071;DHT22;1546;47.208;9.038;2022-12-07T05:05:21;4.40;99.90
3071;DHT22;1546;47.208;9.038;2022-12-07T05:07:48;4.20;99.90
3071;DHT22;1546;47.208;9.038;2022-12-07T05:10:16;4.20;99.90
3071;DHT22;1546;47.208;9.038;2022-12-07T05:12:43;4.30;99.90
3071;DHT22;1546;47.208;9.038;2022-12-07T05:15:10;4.40;99.90
3071;DHT22;1546;47.208;9.038;2022-12-07T05:17:37;4.30;99.90
3071;DHT22;1546;47.208;9.038;2022-12-07T05:20:05;4.30;99.90
3071;DHT22;1546;47.208;9.038;2022-12-07T05:22:32;4.50;99.90
3071;DHT22;1546;47.208;9.038;2022-12-07T05:24:59;4.80;99.90
3071;DHT22;1546;47.208;9.038;2022-12-07T05:27:27;5.00;99.90
3071;DHT22;1546;47.208;9.038;2022-12-07T05:29:54;4.90;99.90
3071;DHT22;1546;47.208;9.038;2022-12-07T05:32:21;4.90;99.90
3071;DHT22;1546;47.208;9.038;2022-12-07T05:34:47;4.80;99.90
3071;DHT22;1546;47.208;9.038;2022-12-07T05:37:14;4.90;99.90
3071;DHT22;1546;47.208;9.038;2022-12-07T05:39:41;4.90;99.90
3071;DHT22;1546;47.208;9.038;2022-12-07T05:42:08;4.90;99.90
3071;DHT22;1546;47.208;9.038;2022-12-07T05:44:40;5.00;99.90
3071;DHT22;1546;47.208;9.038;2022-12-07T05:47:07;5.10;99.90
3071;DHT22;1546;47.208;9.038;2022-12-07T05:49:34;5.10;99.90
3071;DHT22;1546;47.208;9.038;2022-12-07T05:52:00;4.90;99.90
3071;DHT22;1546;47.208;9.038;2022-12-07T05:54:27;4.80;99.90
3071;DHT22;1546;47.208;9.038;2022-12-07T05:56:54;4.80;99.90
3071;DHT22;1546;47.208;9.038;2022-12-07T05:59:21;4.90;99.90
3071;DHT22;1546;47.208;9.038;2022-12-07T06:01:53;4.90;99.90
3071;DHT22;1546;47.208;9.038;2022-12-07T06:04:20;4.90;99.90
3071;DHT22;1546;47.208;9.038;2022-12-07T06:06:48;4.90;99.90
3071;DHT22;1546;47.208;9.038;2022-12-07T06:09:15;5.00;99.90
3071;DHT22;1546;47.208;9.038;2022-12-07T06:11:42;5.00;99.90
3071;DHT22;1546;47.208;9.038;2022-12-07T06:14:26;4.90;99.90
3071;DHT22;1546;47.208;9.038;2022-12-07T06:16:54;4.80;99.90
3071;DHT22;1546;47.208;9.038;2022-12-07T06:19:21;4.80;99.90
3071;DHT22;1546;47.208;9.038;2022-12-07T06:21:48;4.80;99.90
3071;DHT22;1546;47.208;9.038;2022-12-07T06:24:16;4.60;99.90
3071;DHT22;1546;47.208;9.038;2022-12-07T06:26:43;4.50;99.90
3071;DHT22;1546;47.208;9.038;2022-12-07T06:29:11;4.40;99.90
3071;DHT22;1546;47.208;9.038;2022-12-07T06:31:38;4.40;99.90
3071;DHT22;1546;47.208;9.038;2022-12-07T06:34:10;4.30;99.90
3071;DHT22;1546;47.208;9.038;2022-12-07T06:36:37;4.10;99.90
3071;DHT22;1546;47.208;9.038;2022-12-07T06:39:04;3.90;99.90
3071;DHT22;1546;47.208;9.038;2022-12-07T06:41:32;3.80;99.90
3071;DHT22;1546;47.208;9.038;2022-12-07T06:43:58;3.80;99.90
3071;DHT22;1546;47.208;9.038;2022-12-07T06:46:25;3.80;99.90
3071;DHT22;1546;47.208;9.038;2022-12-07T06:48:52;3.70;99.90
3071;DHT22;1546;47.208;9.038;2022-12-07T06:51:20;3.80;99.90
3071;DHT22;1546;47.208;9.038;2022-12-07T06:53:47;4.00;99.90
3071;DHT22;1546;47.208;9.038;2022-12-07T06:56:14;4.10;99.90
3071;DHT22;1546;47.208;9.038;2022-12-07T06:58:41;4.20;99.90
3071;DHT22;1546;47.208;9.038;2022-12-07T07:01:09;4.30;99.90
3071;DHT22;1546;47.208;9.038;2022-12-07T07:03:36;4.40;99.90
3071;DHT22;1546;47.208;9.038;2022-12-07T07:06:04;4.50;99.90
3071;DHT22;1546;47.208;9.038;2022-12-07T07:08:32;4.50;99.90
3071;DHT22;1546;47.208;9.038;2022-12-07T07:11:00;4.70;99.90
3071;DHT22;1546;47.208;9.038;2022-12-07T07:13:27;4.70;99.90
3071;DHT22;1546;47.208;9.038;2022-12-07T07:15:54;4.60;99.90
3071;DHT22;1546;47.208;9.038;2022-12-07T07:18:21;4.50;99.90
3071;DHT22;1546;47.208;9.038;2022-12-07T07:20:50;4.50;99.90
3071;DHT22;1546;47.208;9.038;2022-12-07T07:23:17;4.60;99.90
3071;DHT22;1546;47.208;9.038;2022-12-07T07:25:46;4.70;99.90
3071;DHT22;1546;47.208;9.038;2022-12-07T07:28:13;4.70;99.90
3071;DHT22;1546;47.208;9.038;2022-12-07T07:30:39;4.80;99.90
3071;DHT22;1546;47.208;9.038;2022-12-07T07:33:07;4.70;99.90
3071;DHT22;1546;47.208;9.038;2022-12-07T07:35:34;4.80;99.90
3071;DHT22;1546;47.208;9.038;2022-12-07T07:38:01;4.90;99.90
3071;DHT22;1546;47.208;9.038;2022-12-07T07:40:29;4.90;99.90
3071;DHT22;1546;47.208;9.038;2022-12-07T07:42:57;5.00;99.90
3071;DHT22;1546;47.208;9.038;2022-12-07T07:45:25;5.00;99.90
3071;DHT22;1546;47.208;9.038;2022-12-07T07:47:53;5.00;99.90
3071;DHT22;1546;47.208;9.038;2022-12-07T07:50:21;4.90;99.90
3071;DHT22;1546;47.208;9.038;2022-12-07T07:52:49;5.00;99.90
3071;DHT22;1546;47.208;9.038;2022-12-07T07:55:16;5.00;99.90
3071;DHT22;1546;47.208;9.038;2022-12-07T07:57:42;5.10;99.90
3071;DHT22;1546;47.208;9.038;2022-12-07T08:00:12;4.90;99.90
3071;DHT22;1546;47.208;9.038;2022-12-07T08:02:40;5.00;99.90
3071;DHT22;1546;47.208;9.038;2022-12-07T08:05:08;4.90;99.90
3071;DHT22;1546;47.208;9.038;2022-12-07T08:07:35;4.90;99.90
3071;DHT22;1546;47.208;9.038;2022-12-07T08:10:02;5.00;99.90
3071;DHT22;1546;47.208;9.038;2022-12-07T08:12:29;5.00;99.90
3071;DHT22;1546;47.208;9.038;2022-12-07T08:14:56;5.00;99.90
3071;DHT22;1546;47.208;9.038;2022-12-07T08:17:24;5.10;99.90
3071;DHT22;1546;47.208;9.038;2022-12-07T08:19:51;5.10;99.90
3071;DHT22;1546;47.208;9.038;2022-12-07T08:22:18;5.10;99.90
3071;DHT22;1546;47.208;9.038;2022-12-07T08:24:45;5.10;99.90
3071;DHT22;1546;47.208;9.038;2022-12-07T08:27:11;5.00;99.90
3071;DHT22;1546;47.208;9.038;2022-12-07T08:29:38;4.90;99.90
3071;DHT22;1546;47.208;9.038;2022-12-07T08:32:05;5.00;99.90
3071;DHT22;1546;47.208;9.038;2022-12-07T08:34:33;5.00;99.90
3071;DHT22;1546;47.208;9.038;2022-12-07T08:37:00;5.00;99.90
3071;DHT22;1546;47.208;9.038;2022-12-07T08:39:27;5.20;99.90
3071;DHT22;1546;47.208;9.038;2022-12-07T08:41:54;5.40;99.90
3071;DHT22;1546;47.208;9.038;2022-12-07T08:44:21;5.40;99.90
3071;DHT22;1546;47.208;9.038;2022-12-07T08:46:50;5.50;99.90
3071;DHT22;1546;47.208;9.038;2022-12-07T08:49:21;5.50;99.90
3071;DHT22;1546;47.208;9.038;2022-12-07T08:51:51;5.70;99.90
3071;DHT22;1546;47.208;9.038;2022-12-07T08:54:18;5.50;99.90
3071;DHT22;1546;47.208;9.038;2022-12-07T08:56:47;5.40;99.90
3071;DHT22;1546;47.208;9.038;2022-12-07T08:59:17;5.50;99.90
3071;DHT22;1546;47.208;9.038;2022-12-07T09:01:45;5.50;99.90
3071;DHT22;1546;47.208;9.038;2022-12-07T09:04:12;5.40;99.90
3071;DHT22;1546;47.208;9.038;2022-12-07T09:06:40;5.30;99.90
3071;DHT22;1546;47.208;9.038;2022-12-07T09:09:09;5.30;99.90
3071;DHT22;1546;47.208;9.038;2022-12-07T09:11:37;5.20;99.90
3071;DHT22;1546;47.208;9.038;2022-12-07T09:14:04;5.10;99.90
3071;DHT22;1546;47.208;9.038;2022-12-07T09:16:31;5.00;99.90
3071;DHT22;1546;47.208;9.038;2022-12-07T09:18:58;5.20;99.90
3071;DHT22;1546;47.208;9.038;2022-12-07T09:21:25;5.30;99.90
3071;DHT22;1546;47.208;9.038;2022-12-07T09:23:51;5.60;99.90
3071;DHT22;1546;47.208;9.038;2022-12-07T09:26:20;5.50;99.90
3071;DHT22;1546;47.208;9.038;2022-12-07T09:28:46;5.40;99.90
3071;DHT22;1546;47.208;9.038;2022-12-07T09:31:13;5.70;99.90
3071;DHT22;1546;47.208;9.038;2022-12-07T09:33:40;5.70;99.90
3071;DHT22;1546;47.208;9.038;2022-12-07T09:36:07;5.70;99.90
3071;DHT22;1546;47.208;9.038;2022-12-07T09:38:35;5.70;99.90
3071;DHT22;1546;47.208;9.038;2022-12-07T09:41:05;5.80;99.90
3071;DHT22;1546;47.208;9.038;2022-12-07T09:43:35;5.90;99.90
3071;DHT22;1546;47.208;9.038;2022-12-07T09:46:03;6.00;99.90
3071;DHT22;1546;47.208;9.038;2022-12-07T09:48:33;6.00;99.90
3071;DHT22;1546;47.208;9.038;2022-12-07T09:51:02;6.00;99.90
3071;DHT22;1546;47.208;9.038;2022-12-07T09:53:38;6.00;99.90
3071;DHT22;1546;47.208;9.038;2022-12-07T09:56:06;6.20;99.90
3071;DHT22;1546;47.208;9.038;2022-12-07T09:58:34;6.10;99.90
3071;DHT22;1546;47.208;9.038;2022-12-07T10:01:05;6.10;99.90
3071;DHT22;1546;47.208;9.038;2022-12-07T10:03:36;6.10;99.90
3071;DHT22;1546;47.208;9.038;2022-12-07T10:06:04;6.10;99.90
3071;DHT22;1546;47.208;9.038;2022-12-07T10:08:32;6.10;99.90
3071;DHT22;1546;47.208;9.038;2022-12-07T10:11:03;6.10;99.90
3071;DHT22;1546;47.208;9.038;2022-12-07T10:13:38;5.90;99.90
3071;DHT22;1546;47.208;9.038;2022-12-07T10:16:06;5.90;99.90
3071;DHT22;1546;47.208;9.038;2022-12-07T10:18:34;6.00;99.90
3071;DHT22;1546;47.208;9.038;2022-12-07T10:21:11;5.90;99.90
3071;DHT22;1546;47.208;9.038;2022-12-07T10:23:40;5.80;99.90
3071;DHT22;1546;47.208;9.038;2022-12-07T10:26:26;5.70;99.90
3071;DHT22;1546;47.208;9.038;2022-12-07T10:28:55;5.60;99.90
3071;DHT22;1546;47.208;9.038;2022-12-07T10:31:23;5.60;99.90
3071;DHT22;1546;47.208;9.038;2022-12-07T10:33:52;5.60;99.90
3071;DHT22;1546;47.208;9.038;2022-12-07T10:36:22;5.70;99.90
3071;DHT22;1546;47.208;9.038;2022-12-07T10:38:51;5.80;99.90
3071;DHT22;1546;47.208;9.038;2022-12-07T10:41:18;5.60;99.90
3071;DHT22;1546;47.208;9.038;2022-12-07T10:43:54;5.40;99.90
3071;DHT22;1546;47.208;9.038;2022-12-07T10:47:01;5.40;99.90
3071;DHT22;1546;47.208;9.038;2022-12-07T10:53:04;5.70;99.90
3071;DHT22;1546;47.208;9.038;2022-12-07T10:55:44;5.70;99.90
3071;DHT22;1546;47.208;9.038;2022-12-07T10:58:28;5.90;99.90
3071;DHT22;1546;47.208;9.038;2022-12-07T11:01:04;5.90;99.90
3071;DHT22;1546;47.208;9.038;2022-12-07T11:03:48;6.00;99.90
3071;DHT22;1546;47.208;9.038;2022-12-07T11:06:26;6.00;99.90
3071;DHT22;1546;47.208;9.038;2022-12-07T11:09:16;6.00;99.90
3071;DHT22;1546;47.208;9.038;2022-12-07T11:11:52;6.00;99.90
3071;DHT22;1546;47.208;9.038;2022-12-07T11:14:26;5.90;99.90
3071;DHT22;1546;47.208;9.038;2022-12-07T11:17:00;5.90;99.90
3071;DHT22;1546;47.208;9.038;2022-12-07T11:19:42;5.90;99.90
3071;DHT22;1546;47.208;9.038;2022-12-07T11:22:19;5.70;99.90
3071;DHT22;1546;47.208;9.038;2022-12-07T11:24:53;5.60;99.90
3071;DHT22;1546;47.208;9.038;2022-12-07T11:27:28;5.60;99.90
3071;DHT22;1546;47.208;9.038;2022-12-07T11:30:17;5.60;99.90
3071;DHT22;1546;47.208;9.038;2022-12-07T11:32:58;5.70;99.90
3071;DHT22;1546;47.208;9.038;2022-12-07T11:35:37;5.70;99.90
3071;DHT22;1546;47.208;9.038;2022-12-07T11:38:11;5.70;99.90
3071;DHT22;1546;47.208;9.038;2022-12-07T11:40:40;5.70;99.90
3071;DHT22;1546;47.208;9.038;2022-12-07T11:43:16;5.90;99.90
3071;DHT22;1546;47.208;9.038;2022-12-07T11:45:47;6.00;99.90
3071;DHT22;1546;47.208;9.038;2022-12-07T11:48:24;6.00;99.90
3071;DHT22;1546;47.208;9.038;2022-12-07T11:50:56;6.10;99.90
3071;DHT22;1546;47.208;9.038;2022-12-07T11:53:27;6.10;99.90
3071;DHT22;1546;47.208;9.038;2022-12-07T11:55:57;6.30;99.90
3071;DHT22;1546;47.208;9.038;2022-12-07T11:58:47;6.40;99.90
3071;DHT22;1546;47.208;9.038;2022-12-07T12:01:26;6.60;99.90
3071;DHT22;1546;47.208;9.038;2022-12-07T12:04:02;6.70;99.90
3071;DHT22;1546;47.208;9.038;2022-12-07T12:06:32;6.50;99.90
3071;DHT22;1546;47.208;9.038;2022-12-07T12:09:04;6.40;99.90
3071;DHT22;1546;47.208;9.038;2022-12-07T12:11:45;6.40;99.90
3071;DHT22;1546;47.208;9.038;2022-12-07T12:14:36;6.50;99.90
3071;DHT22;1546;47.208;9.038;2022-12-07T12:17:21;6.50;99.90
3071;DHT22;1546;47.208;9.038;2022-12-07T12:20:01;6.40;99.90
3071;DHT22;1546;47.208;9.038;2022-12-07T12:22:35;6.50;99.90
3071;DHT22;1546;47.208;9.038;2022-12-07T12:25:05;6.50;99.90
3071;DHT22;1546;47.208;9.038;2022-12-07T12:27:35;6.60;99.90
3071;DHT22;1546;47.208;9.038;2022-12-07T12:30:06;6.60;99.90
3071;DHT22;1546;47.208;9.038;2022-12-07T12:32:38;6.60;99.90
3071;DHT22;1546;47.208;9.038;2022-12-07T12:35:28;6.80;99.90
3071;DHT22;1546;47.208;9.038;2022-12-07T12:38:26;6.90;99.90
3071;DHT22;1546;47.208;9.038;2022-12-07T12:40:54;6.90;99.90
3071;DHT22;1546;47.208;9.038;2022-12-07T12:43:46;6.80;99.90
3071;DHT22;1546;47.208;9.038;2022-12-07T12:46:49;6.70;99.90
3071;DHT22;1546;47.208;9.038;2022-12-07T12:49:40;6.70;99.90
3071;DHT22;1546;47.208;9.038;2022-12-07T12:55:19;6.80;99.90
3071;DHT22;1546;47.208;9.038;2022-12-07T13:03:55;6.80;99.90
3071;DHT22;1546;47.208;9.038;2022-12-07T13:06:34;7.00;99.90
3071;DHT22;1546;47.208;9.038;2022-12-07T13:09:03;7.10;99.90
3071;DHT22;1546;47.208;9.038;2022-12-07T13:11:35;7.20;99.90
3071;DHT22;1546;47.208;9.038;2022-12-07T13:14:51;7.20;99.90
3071;DHT22;1546;47.208;9.038;2022-12-07T13:20:44;6.90;99.90
3071;DHT22;1546;47.208;9.038;2022-12-07T13:23:12;6.80;99.90
3071;DHT22;1546;47.208;9.038;2022-12-07T13:25:46;6.90;99.90
3071;DHT22;1546;47.208;9.038;2022-12-07T13:28:18;6.90;99.90
3071;DHT22;1546;47.208;9.038;2022-12-07T13:30:50;6.90;99.90
3071;DHT22;1546;47.208;9.038;2022-12-07T13:33:20;6.90;99.90
3071;DHT22;1546;47.208;9.038;2022-12-07T13:35:47;7.10;99.90
3071;DHT22;1546;47.208;9.038;2022-12-07T13:38:22;7.00;99.90
3071;DHT22;1546;47.208;9.038;2022-12-07T13:41:00;6.90;99.90
3071;DHT22;1546;47.208;9.038;2022-12-07T13:43:29;6.90;99.90
3071;DHT22;1546;47.208;9.038;2022-12-07T13:45:56;6.90;99.90
3071;DHT22;1546;47.208;9.038;2022-12-07T13:48:30;6.70;99.90
3071;DHT22;1546;47.208;9.038;2022-12-07T13:50:59;6.70;99.90
3071;DHT22;1546;47.208;9.038;2022-12-07T13:53:26;6.80;99.90
3071;DHT22;1546;47.208;9.038;2022-12-07T13:55:55;6.70;99.90
3071;DHT22;1546;47.208;9.038;2022-12-07T13:58:22;6.70;99.90
3071;DHT22;1546;47.208;9.038;2022-12-07T14:00:51;6.70;99.90
3071;DHT22;1546;47.208;9.038;2022-12-07T14:03:31;6.70;99.90
3071;DHT22;1546;47.208;9.038;2022-12-07T14:06:21;6.50;99.90
3071;DHT22;1546;47.208;9.038;2022-12-07T14:08:51;6.40;99.90
3071;DHT22;1546;47.208;9.038;2022-12-07T14:11:32;6.40;99.90
3071;DHT22;1546;47.208;9.038;2022-12-07T14:14:00;6.50;99.90
3071;DHT22;1546;47.208;9.038;2022-12-07T14:16:31;6.60;99.90
3071;DHT22;1546;47.208;9.038;2022-12-07T14:19:00;6.60;99.90
3071;DHT22;1546;47.208;9.038;2022-12-07T14:21:28;6.50;99.90
3071;DHT22;1546;47.208;9.038;2022-12-07T14:24:12;6.50;99.90
3071;DHT22;1546;47.208;9.038;2022-12-07T14:26:41;6.50;99.90
3071;DHT22;1546;47.208;9.038;2022-12-07T14:29:31;6.30;99.90
3071;DHT22;1546;47.208;9.038;2022-12-07T14:32:21;6.30;99.90
3071;DHT22;1546;47.208;9.038;2022-12-07T14:34:57;6.30;99.90
3071;DHT22;1546;47.208;9.038;2022-12-07T14:37:25;6.20;99.90
3071;DHT22;1546;47.208;9.038;2022-12-07T14:39:52;6.20;99.90
3071;DHT22;1546;47.208;9.038;2022-12-07T14:42:19;6.20;99.90
3071;DHT22;1546;47.208;9.038;2022-12-07T14:44:46;6.20;99.90
3071;DHT22;1546;47.208;9.038;2022-12-07T14:47:14;6.30;99.90
3071;DHT22;1546;47.208;9.038;2022-12-07T14:49:41;6.40;99.90
3071;DHT22;1546;47.208;9.038;2022-12-07T14:52:13;6.40;99.90
3071;DHT22;1546;47.208;9.038;2022-12-07T14:54:41;6.40;99.90
3071;DHT22;1546;47.208;9.038;2022-12-07T14:57:09;6.40;99.90
3071;DHT22;1546;47.208;9.038;2022-12-07T14:59:36;6.40;99.90
3071;DHT22;1546;47.208;9.038;2022-12-07T15:02:03;6.50;99.90
3071;DHT22;1546;47.208;9.038;2022-12-07T15:04:31;6.50;99.90
3071;DHT22;1546;47.208;9.038;2022-12-07T15:06:59;6.40;99.90
3071;DHT22;1546;47.208;9.038;2022-12-07T15:09:26;6.40;99.90
3071;DHT22;1546;47.208;9.038;2022-12-07T15:11:53;6.40;99.90
3071;DHT22;1546;47.208;9.038;2022-12-07T15:14:20;6.40;99.90
3071;DHT22;1546;47.208;9.038;2022-12-07T15:16:47;6.30;99.90
3071;DHT22;1546;47.208;9.038;2022-12-07T15:19:15;6.40;99.90
3071;DHT22;1546;47.208;9.038;2022-12-07T15:21:44;6.40;99.90
3071;DHT22;1546;47.208;9.038;2022-12-07T15:24:11;6.40;99.90
3071;DHT22;1546;47.208;9.038;2022-12-07T15:26:39;6.30;99.90
3071;DHT22;1546;47.208;9.038;2022-12-07T15:29:06;6.30;99.90
3071;DHT22;1546;47.208;9.038;2022-12-07T15:31:33;6.20;99.90
3071;DHT22;1546;47.208;9.038;2022-12-07T15:34:00;6.20;99.90
3071;DHT22;1546;47.208;9.038;2022-12-07T15:36:29;6.20;99.90
3071;DHT22;1546;47.208;9.038;2022-12-07T15:38:57;6.20;99.90
3071;DHT22;1546;47.208;9.038;2022-12-07T15:41:25;6.10;99.90
3071;DHT22;1546;47.208;9.038;2022-12-07T15:43:52;6.20;99.90
3071;DHT22;1546;47.208;9.038;2022-12-07T15:46:40;6.10;99.90
3071;DHT22;1546;47.208;9.038;2022-12-07T15:49:11;6.00;99.90
3071;DHT22;1546;47.208;9.038;2022-12-07T15:51:39;6.00;99.90
3071;DHT22;1546;47.208;9.038;2022-12-07T15:54:07;6.00;99.90
3071;DHT22;1546;47.208;9.038;2022-12-07T15:56:35;6.00;99.90
3071;DHT22;1546;47.208;9.038;2022-12-07T15:59:02;6.00;99.90
3071;DHT22;1546;47.208;9.038;2022-12-07T16:01:28;5.90;99.90
3071;DHT22;1546;47.208;9.038;2022-12-07T16:03:57;5.90;99.90
3071;DHT22;1546;47.208;9.038;2022-12-07T16:06:24;5.90;99.90
3071;DHT22;1546;47.208;9.038;2022-12-07T16:08:51;5.90;99.90
3071;DHT22;1546;47.208;9.038;2022-12-07T16:11:19;5.90;99.90
3071;DHT22;1546;47.208;9.038;2022-12-07T16:13:46;5.90;99.90
3071;DHT22;1546;47.208;9.038;2022-12-07T16:16:15;5.80;99.90
3071;DHT22;1546;47.208;9.038;2022-12-07T16:18:43;5.80;99.90
3071;DHT22;1546;47.208;9.038;2022-12-07T16:21:10;5.90;99.90
3071;DHT22;1546;47.208;9.038;2022-12-07T16:23:38;5.90;99.90
3071;DHT22;1546;47.208;9.038;2022-12-07T16:26:06;5.80;99.90
3071;DHT22;1546;47.208;9.038;2022-12-07T16:28:35;5.80;99.90
3071;DHT22;1546;47.208;9.038;2022-12-07T16:31:06;5.80;99.90
3071;DHT22;1546;47.208;9.038;2022-12-07T16:33:34;5.80;99.90
3071;DHT22;1546;47.208;9.038;2022-12-07T16:36:03;5.90;99.90
3071;DHT22;1546;47.208;9.038;2022-12-07T16:38:30;6.00;99.90
3071;DHT22;1546;47.208;9.038;2022-12-07T16:40:58;6.00;99.90
3071;DHT22;1546;47.208;9.038;2022-12-07T16:43:25;6.00;99.90
3071;DHT22;1546;47.208;9.038;2022-12-07T16:45:53;6.00;99.90
3071;DHT22;1546;47.208;9.038;2022-12-07T16:48:19;6.10;99.90
3071;DHT22;1546;47.208;9.038;2022-12-07T16:50:46;6.10;99.90
3071;DHT22;1546;47.208;9.038;2022-12-07T16:53:14;6.00;99.90
3071;DHT22;1546;47.208;9.038;2022-12-07T16:55:43;6.10;99.90